Siauliai, Lithuania
Current Conditions -  °F | °C
As of 5:50 PM on Friday 31 Oct 2014 (Local Time) from EYSA Reporting Station
Clear Clear  
Wind Chill: 41°   Ceiling: Unl
Heat Index: 41°   Visibility: 6mi
Dew Point: 37°   Wind: 2mph
Humidity: 87%   Direction: 320°NW
Pressure: 30.27"   Gusts: NA
Location:  55.93°N, 23.32°E
Report Text: EYSA 311450Z 32002KT CAVOK 05/03 Q1025
Loading
Personal Weather Stations






























Interactive Weather Map
Tropical Storm Tracking
New forecast layout! Learn more

10-Day Weather Forecast

Advertisements
Track Severe Weather on mobile